Cuba, Missouri
Current Conditions -  °F | °C
As of 1:53 AM on Monday 24 Nov 2014 (Local Time) from KVIH Reporting Station
Moderate Rain Moderate Rain  
Wind Chill: 27°   Ceiling: 800
Heat Index: 38°   Visibility: 5mi
Dew Point: 36°   Wind: 23mph
Humidity: 93%   Direction: 290°WNW
Pressure: 29.39"   Gusts: 30mph
Location:  38.06°N, 91.4°W
Report Text: KVIH 240753Z AUTO 29020G26KT 5SM RA BR BKN008 OVC017 03/02 A2939 RMK AO2 PK WND 30029/0702 PRESRR SLP952 P0015 T00330022
Loading
Personal Weather Stations






























Interactive Weather Map New forecast layout! Learn more

10-Day Weather Forecast

Advertisements
Track Severe Weather on mobile